Time;durP1;ratioP1;P1;durP2;ratioP2;P2;SDS_P1;SDS_P2;PMS_P1;PMS_P2;Temp;Humidity;BMP_temperature;BMP_pressure;BME280_temperature;BME280_humidity;BME280_pressure;Samples;Min_cycle;Max_cycle;Signal;HPM_P1;HPM_P2
2021/07/31 00:00:34;;;;;;;5.80;3.00;;;19.80;52.40;;;;;;5075969;28;20490;-76
2021/07/31 00:03:01;;;;;;;3.30;2.67;;;19.80;52.50;;;;;;5076421;28;20882;-75
2021/07/31 00:05:28;;;;;;;3.50;2.60;;;19.70;53.00;;;;;;5059814;28;21020;-75
2021/07/31 00:07:55;;;;;;;3.03;2.30;;;19.60;53.10;;;;;;5056619;28;20528;-76
2021/07/31 00:10:22;;;;;;;3.30;2.27;;;19.60;53.10;;;;;;5056458;28;20543;-75
2021/07/31 00:12:50;;;;;;;2.60;2.40;;;19.60;53.20;;;;;;5054966;28;20460;-75
2021/07/31 00:15:17;;;;;;;9.00;3.00;;;19.50;53.30;;;;;;5069930;28;20525;-75
2021/07/31 00:17:44;;;;;;;3.10;2.80;;;19.50;53.30;;;;;;5077477;28;20542;-76
2021/07/31 00:20:11;;;;;;;5.00;3.03;;;19.40;53.40;;;;;;5064999;28;20485;-75
2021/07/31 00:22:39;;;;;;;4.27;2.33;;;19.40;53.80;;;;;;5058865;28;20476;-76
2021/07/31 00:25:06;;;;;;;5.00;2.17;;;19.30;53.60;;;;;;5057864;28;20560;-77
2021/07/31 00:27:33;;;;;;;3.53;2.23;;;19.30;54.00;;;;;;5059119;28;20595;-76
2021/07/31 00:30:01;;;;;;;2.30;2.10;;;19.20;54.10;;;;;;5060636;28;20511;-76
2021/07/31 00:32:28;;;;;;;3.30;2.27;;;19.20;54.30;;;;;;5069812;28;20449;-76
2021/07/31 00:34:55;;;;;;;5.20;2.50;;;19.20;54.80;;;;;;5062584;28;20502;-77
2021/07/31 00:37:22;;;;;;;3.63;2.40;;;19.20;55.10;;;;;;5073680;28;20456;-75
2021/07/31 00:39:49;;;;;;;2.63;2.40;;;19.20;55.50;;;;;;5083537;28;20464;-76
2021/07/31 00:42:16;;;;;;;3.10;2.67;;;19.10;56.00;;;;;;5096480;28;20448;-76
2021/07/31 00:44:43;;;;;;;7.37;2.80;;;19.10;57.80;;;;;;5098014;28;20468;-76
2021/07/31 00:47:11;;;;;;;3.03;2.50;;;19.00;57.70;;;;;;5098390;28;20491;-75
2021/07/31 00:49:39;;;;;;;3.37;3.07;;;19.00;58.30;;;;;;5079577;28;20502;-76
2021/07/31 00:52:07;;;;;;;3.50;2.57;;;18.90;59.10;;;;;;5077571;28;20451;-76
2021/07/31 00:54:35;;;;;;;2.60;2.40;;;18.80;59.90;;;;;;5077512;28;20502;-77
2021/07/31 00:57:02;;;;;;;3.17;2.87;;;18.70;60.50;;;;;;5077443;28;20458;-77
2021/07/31 00:59:29;;;;;;;3.07;2.50;;;18.70;61.10;;;;;;5077498;28;20472;-75
2021/07/31 01:01:56;;;;;;;3.47;2.37;;;18.60;62.40;;;;;;5077937;28;20512;-75
2021/07/31 01:04:25;;;;;;;3.13;2.83;;;18.60;61.80;;;;;;5078906;28;20491;-76
2021/07/31 01:06:51;;;;;;;5.10;2.53;;;18.60;62.10;;;;;;5077792;28;20442;-76
2021/07/31 01:09:19;;;;;;;5.70;2.90;;;18.60;62.30;;;;;;5077939;28;20573;-75
2021/07/31 01:11:45;;;;;;;2.93;2.73;;;18.50;62.00;;;;;;5078346;28;20430;-76
2021/07/31 01:14:12;;;;;;;4.13;2.47;;;18.60;61.60;;;;;;5077860;28;20535;-77
2021/07/31 01:16:39;;;;;;;2.87;2.67;;;18.60;60.90;;;;;;5077564;28;20809;-77
2021/07/31 01:19:06;;;;;;;3.60;2.57;;;18.60;60.30;;;;;;5074064;28;20558;-77
2021/07/31 01:21:39;;;;;;;2.50;2.30;;;18.70;59.70;;;;;;5055937;28;20452;-77
2021/07/31 01:24:08;;;;;;;9.70;2.93;;;18.70;58.30;;;;;;5056321;28;20707;-76
2021/07/31 01:26:38;;;;;;;3.00;2.27;;;18.70;57.40;;;;;;5056598;28;20485;-77
2021/07/31 01:29:06;;;;;;;7.87;3.20;;;18.60;57.30;;;;;;5057517;28;20499;-77
2021/07/31 01:31:34;;;;;;;2.33;2.03;;;18.60;56.20;;;;;;5077030;28;20459;-77
2021/07/31 01:34:01;;;;;;;3.80;2.13;;;18.60;56.00;;;;;;5076307;28;20457;-77
2021/07/31 01:36:28;;;;;;;2.97;2.33;;;18.60;55.10;;;;;;5077652;28;20478;-77
2021/07/31 01:38:56;;;;;;;2.43;2.23;;;18.60;54.70;;;;;;5077565;28;20454;-77
2021/07/31 01:41:24;;;;;;;4.30;2.10;;;18.70;52.80;;;;;;5058792;28;20868;-76
2021/07/31 01:43:51;;;;;;;2.77;1.63;;;18.70;51.40;;;;;;5061859;28;20488;-77
2021/07/31 01:46:18;;;;;;;6.53;1.93;;;18.70;50.70;;;;;;5066611;28;20476;-76
2021/07/31 01:48:45;;;;;;;3.73;1.80;;;18.70;50.40;;;;;;5065182;28;20813;-76
2021/07/31 01:51:12;;;;;;;4.37;1.77;;;18.70;50.20;;;;;;5077394;28;20430;-76
2021/07/31 01:53:39;;;;;;;8.23;1.90;;;18.60;50.20;;;;;;5076868;28;20467;-77
2021/07/31 01:56:08;;;;;;;5.77;2.10;;;18.50;50.20;;;;;;5058866;28;20544;-77
2021/07/31 01:58:35;;;;;;;3.80;2.23;;;18.50;50.10;;;;;;5057659;28;20480;-76
2021/07/31 02:01:02;;;;;;;2.73;1.80;;;18.50;49.90;;;;;;5063040;28;20440;-76
2021/07/31 02:03:29;;;;;;;3.50;1.83;;;18.50;50.00;;;;;;5058838;28;20544;-76
2021/07/31 02:05:57;;;;;;;1.70;1.60;;;18.40;50.10;;;;;;5078823;28;20539;-76
2021/07/31 02:08:24;;;;;;;4.10;1.90;;;18.40;50.40;;;;;;5083917;28;20513;-75
2021/07/31 02:10:51;;;;;;;3.07;1.30;;;18.50;49.70;;;;;;5082505;28;20487;-75
2021/07/31 02:13:19;;;;;;;1.60;1.50;;;18.50;49.50;;;;;;5081465;28;20475;-76
2021/07/31 02:15:47;;;;;;;5.30;1.60;;;18.50;49.20;;;;;;5065017;28;20476;-76
2021/07/31 02:18:14;;;;;;;4.77;2.10;;;18.50;48.90;;;;;;5061343;28;20451;-76
2021/07/31 02:20:41;;;;;;;1.90;1.63;;;18.50;49.50;;;;;;5076938;28;20452;-76
2021/07/31 02:23:08;;;;;;;2.80;1.63;;;18.40;48.90;;;;;;5080926;28;20524;-76
2021/07/31 02:25:35;;;;;;;4.93;1.60;;;18.40;48.90;;;;;;5080145;28;20481;-76
2021/07/31 02:28:02;;;;;;;2.40;1.57;;;18.40;49.10;;;;;;5081032;28;20621;-76
2021/07/31 02:30:31;;;;;;;3.83;1.90;;;18.30;49.10;;;;;;5067897;28;20547;-76
2021/07/31 02:32:57;;;;;;;6.50;2.03;;;18.30;49.00;;;;;;5060873;28;20546;-76
2021/07/31 02:35:24;;;;;;;3.77;2.03;;;18.30;48.60;;;;;;5072384;28;20465;-76
2021/07/31 02:37:51;;;;;;;3.90;1.67;;;18.30;49.10;;;;;;5081276;28;20899;-76
2021/07/31 02:40:18;;;;;;;2.10;1.83;;;18.30;49.00;;;;;;5082437;28;20454;-77
2021/07/31 02:42:45;;;;;;;2.30;1.60;;;18.30;48.70;;;;;;5086399;28;20459;-77
2021/07/31 02:45:12;;;;;;;7.97;2.10;;;18.20;48.50;;;;;;5084201;28;20574;-76
2021/07/31 02:47:40;;;;;;;2.90;1.70;;;18.20;48.90;;;;;;5087553;28;20428;-77
2021/07/31 02:50:08;;;;;;;4.50;2.00;;;18.10;49.50;;;;;;5077776;28;20556;-77
2021/07/31 02:52:35;;;;;;;4.10;1.80;;;18.00;49.80;;;;;;5076798;28;20475;-78
2021/07/31 02:55:03;;;;;;;6.23;1.97;;;18.00;49.80;;;;;;5078239;28;20498;-75
2021/07/31 02:57:30;;;;;;;4.77;1.73;;;17.90;49.90;;;;;;5079164;28;20444;-77
2021/07/31 02:59:57;;;;;;;9.23;2.13;;;17.90;50.30;;;;;;5086024;28;20475;-76
2021/07/31 03:02:25;;;;;;;4.83;1.70;;;17.80;50.60;;;;;;5082259;28;20466;-76
2021/07/31 03:04:54;;;;;;;2.60;1.73;;;17.80;50.30;;;;;;5080812;28;20490;-76
2021/07/31 03:07:21;;;;;;;3.00;1.70;;;17.80;50.40;;;;;;5086069;28;20459;-76
2021/07/31 03:09:48;;;;;;;2.23;1.60;;;17.70;50.40;;;;;;5075626;28;20488;-77
2021/07/31 03:12:17;;;;;;;4.87;2.17;;;17.60;50.90;;;;;;5055231;28;20550;-76
2021/07/31 03:14:44;;;;;;;4.20;1.60;;;17.60;51.30;;;;;;5055179;28;20563;-75
2021/07/31 03:17:11;;;;;;;2.93;1.60;;;17.60;51.60;;;;;;5054925;28;20483;-77
2021/07/31 03:19:38;;;;;;;3.50;1.53;;;17.50;51.40;;;;;;5060491;28;20530;-75
2021/07/31 03:22:06;;;;;;;4.53;1.80;;;17.50;51.40;;;;;;5074740;28;20454;-75
2021/07/31 03:24:34;;;;;;;6.73;1.80;;;17.50;51.70;;;;;;5074573;28;21046;-76
2021/07/31 03:27:01;;;;;;;2.93;2.00;;;17.50;51.50;;;;;;5075594;28;20558;-76
2021/07/31 03:29:28;;;;;;;3.40;1.97;;;17.50;51.50;;;;;;5074163;28;20815;-76
2021/07/31 03:31:55;;;;;;;4.67;1.97;;;17.40;51.90;;;;;;5076858;28;20462;-75
2021/07/31 03:34:22;;;;;;;2.27;1.57;;;17.40;52.00;;;;;;5070176;28;20471;-76
2021/07/31 03:36:52;;;;;;;8.97;1.87;;;17.40;52.20;;;;;;5056139;28;20535;-76
2021/07/31 03:39:22;;;;;;;1.97;1.80;;;17.40;52.10;;;;;;5056114;28;20825;-76
2021/07/31 03:41:49;;;;;;;4.30;2.10;;;17.40;52.00;;;;;;5055675;28;20457;-76
2021/07/31 03:44:16;;;;;;;2.37;2.00;;;17.30;52.20;;;;;;5060933;28;20498;-75
2021/07/31 03:46:44;;;;;;;3.73;1.90;;;17.30;52.60;;;;;;5075032;28;20838;-76
2021/07/31 03:49:12;;;;;;;2.60;1.97;;;17.20;52.70;;;;;;5074757;28;20946;-76
2021/07/31 03:51:39;;;;;;;4.60;1.60;;;17.20;52.80;;;;;;5074319;28;20830;-76
2021/07/31 03:54:06;;;;;;;2.10;1.83;;;17.20;53.10;;;;;;5074691;28;20474;-76
2021/07/31 03:56:35;;;;;;;2.77;1.50;;;17.20;52.80;;;;;;5077763;28;20478;-76
2021/07/31 03:59:01;;;;;;;3.10;1.80;;;17.10;53.00;;;;;;5076363;28;20538;-76
2021/07/31 04:01:28;;;;;;;2.60;1.63;;;17.10;53.10;;;;;;5074814;28;20545;-76
2021/07/31 04:03:56;;;;;;;6.97;1.80;;;17.10;53.10;;;;;;5072681;28;20565;-76
2021/07/31 04:06:23;;;;;;;2.97;1.60;;;17.10;53.30;;;;;;5053801;28;20460;-76
2021/07/31 04:08:50;;;;;;;5.27;2.40;;;17.00;53.20;;;;;;5054030;28;20543;-76
2021/07/31 04:11:16;;;;;;;5.00;2.17;;;17.10;53.10;;;;;;5073784;28;20522;-76
2021/07/31 04:13:45;;;;;;;4.03;2.13;;;17.10;53.20;;;;;;5073570;28;20514;-75
2021/07/31 04:16:12;;;;;;;4.77;2.00;;;17.10;53.10;;;;;;5073923;28;20951;-75
2021/07/31 04:18:38;;;;;;;6.70;2.00;;;17.10;52.70;;;;;;5074076;28;20562;-76
2021/07/31 04:21:07;;;;;;;8.73;1.80;;;17.10;52.80;;;;;;5073677;28;20529;-76
2021/07/31 04:23:34;;;;;;;4.93;2.03;;;17.10;52.70;;;;;;5071232;28;20456;-76
2021/07/31 04:26:09;;;;;;;5.07;1.70;;;17.10;52.20;;;;;;5053528;28;21012;-75
2021/07/31 04:28:36;;;;;;;4.77;1.53;;;17.20;52.20;;;;;;5053786;28;20910;-75
2021/07/31 04:31:08;;;;;;;8.17;2.40;;;17.20;51.20;;;;;;5073641;28;20517;-76
2021/07/31 04:33:35;;;;;;;5.37;1.90;;;17.30;51.00;;;;;;5072911;28;20514;-77
2021/07/31 04:36:03;;;;;;;6.23;2.43;;;17.30;51.10;;;;;;5054025;28;20546;-75
2021/07/31 04:38:31;;;;;;;4.70;1.87;;;17.40;50.40;;;;;;5054079;28;20458;-75
2021/07/31 04:40:58;;;;;;;3.47;1.40;;;17.50;50.10;;;;;;5073998;28;20451;-76
2021/07/31 04:43:25;;;;;;;8.40;2.30;;;17.50;49.60;;;;;;5095074;22;21024;-82
2021/07/31 04:45:52;;;;;;;4.23;1.83;;;17.60;49.50;;;;;;5054336;28;20449;-79
2021/07/31 04:48:20;;;;;;;3.73;1.50;;;17.70;49.00;;;;;;5049866;28;20453;-79
2021/07/31 04:50:47;;;;;;;3.83;1.60;;;17.80;49.30;;;;;;5027737;28;20520;-77
2021/07/31 04:53:14;;;;;;;6.53;2.20;;;17.90;47.80;;;;;;5021896;28;20482;-79
2021/07/31 04:55:41;;;;;;;5.30;1.73;;;18.30;47.30;;;;;;5024236;28;20552;-78
2021/07/31 04:58:08;;;;;;;2.23;1.33;;;18.90;45.80;;;;;;5052018;28;20454;-79
2021/07/31 05:00:34;;;;;;;2.50;1.30;;;19.40;43.50;;;;;;5038689;28;20446;-80
2021/07/31 05:03:06;;;;;;;5.70;2.03;;;19.80;42.30;;;;;;5033474;28;20455;-80
2021/07/31 05:05:37;;;;;;;7.40;1.50;;;20.20;41.00;;;;;;5048055;28;20465;-80
2021/07/31 05:08:04;;;;;;;2.00;1.63;;;20.70;39.50;;;;;;5054240;28;20443;-79
2021/07/31 05:10:31;;;;;;;3.30;1.60;;;20.90;39.60;;;;;;5053165;28;20482;-79
2021/07/31 05:12:58;;;;;;;2.83;1.33;;;21.20;38.10;;;;;;5049870;28;20452;-78
2021/07/31 05:15:25;;;;;;;2.10;1.60;;;21.40;38.00;;;;;;5044280;28;20514;-80
2021/07/31 05:17:51;;;;;;;6.67;1.53;;;21.70;37.00;;;;;;5055466;28;20456;-81
2021/07/31 05:20:18;;;;;;;2.33;1.50;;;21.70;37.00;;;;;;5039765;28;20444;-81
2021/07/31 05:22:47;;;;;;;6.63;1.33;;;21.80;36.40;;;;;;5036872;28;20420;-81
2021/07/31 05:25:13;;;;;;;3.00;1.60;;;21.90;36.00;;;;;;5047885;28;20465;-78
2021/07/31 05:27:40;;;;;;;2.77;1.53;;;22.00;35.60;;;;;;5040946;28;20931;-78
2021/07/31 05:30:08;;;;;;;1.60;1.07;;;22.20;35.70;;;;;;5037301;28;20467;-78
2021/07/31 05:32:35;;;;;;;5.20;1.13;;;22.30;34.70;;;;;;5037779;28;20470;-77
2021/07/31 05:35:03;;;;;;;1.50;1.23;;;22.20;35.00;;;;;;5034792;28;20484;-78
2021/07/31 05:37:31;;;;;;;1.73;1.47;;;22.30;35.60;;;;;;5034082;28;20478;-77
2021/07/31 05:40:00;;;;;;;3.73;2.07;;;22.40;34.60;;;;;;5032824;28;20519;-77
2021/07/31 05:42:27;;;;;;;3.37;1.50;;;22.50;33.80;;;;;;5036630;28;20454;-78
2021/07/31 05:44:58;;;;;;;3.93;1.43;;;22.60;34.00;;;;;;5036935;28;20520;-78
2021/07/31 05:47:26;;;;;;;3.43;1.50;;;22.80;33.60;;;;;;5037077;28;20977;-78
2021/07/31 05:49:53;;;;;;;2.33;1.40;;;23.20;31.90;;;;;;5021433;28;20440;-77
2021/07/31 05:52:24;;;;;;;3.70;1.10;;;23.00;32.80;;;;;;5018801;28;20494;-78
2021/07/31 05:54:52;;;;;;;1.70;1.40;;;23.00;32.20;;;;;;5019209;28;21032;-78
2021/07/31 05:57:20;;;;;;;4.00;1.47;;;22.80;32.80;;;;;;5018009;28;20470;-79
2021/07/31 05:59:48;;;;;;;5.00;1.43;;;22.90;32.80;;;;;;5018473;28;20592;-79
2021/07/31 06:02:15;;;;;;;2.20;1.50;;;23.30;31.60;;;;;;5023874;28;20542;-80
2021/07/31 06:04:42;;;;;;;2.20;1.30;;;23.30;31.50;;;;;;5037625;28;20954;-78
2021/07/31 06:07:10;;;;;;;1.50;1.40;;;23.20;31.40;;;;;;5041189;28;20485;-79
2021/07/31 06:09:38;;;;;;;6.90;1.60;;;23.20;31.40;;;;;;5025773;28;20528;-77
2021/07/31 06:12:07;;;;;;;1.30;1.00;;;23.50;31.70;;;;;;5019150;28;20586;-79
2021/07/31 06:14:37;;;;;;;4.27;1.97;;;23.50;31.70;;;;;;5033830;28;20472;-78
2021/07/31 06:17:04;;;;;;;4.93;1.60;;;23.10;31.40;;;;;;5041778;28;20457;-79
2021/07/31 06:19:31;;;;;;;2.50;1.23;;;23.20;31.50;;;;;;5038079;28;20482;-79
2021/07/31 06:21:59;;;;;;;4.20;1.03;;;23.40;31.60;;;;;;5038260;28;20487;-79
2021/07/31 06:24:27;;;;;;;2.43;1.53;;;23.40;31.70;;;;;;5040673;28;20473;-78
2021/07/31 06:26:54;;;;;;;3.20;1.40;;;23.30;31.60;;;;;;5039096;28;20528;-78
2021/07/31 06:29:21;;;;;;;2.80;1.40;;;23.10;31.40;;;;;;5029943;28;20433;-79
2021/07/31 06:31:51;;;;;;;2.70;1.50;;;23.40;31.60;;;;;;5020682;28;20517;-79
2021/07/31 06:34:18;;;;;;;6.23;1.40;;;23.50;31.70;;;;;;5024335;28;20474;-78
2021/07/31 06:36:45;;;;;;;6.63;1.53;;;23.60;30.60;;;;;;5040062;28;20441;-79
2021/07/31 06:39:13;;;;;;;3.13;1.57;;;23.20;31.40;;;;;;5040052;28;20536;-78
2021/07/31 06:41:40;;;;;;;4.47;1.60;;;23.10;31.40;;;;;;5038954;28;20507;-79
2021/07/31 06:44:07;;;;;;;4.53;1.20;;;22.90;31.10;;;;;;5044705;28;20458;-78
2021/07/31 06:46:34;;;;;;;1.63;1.10;;;23.10;31.40;;;;;;5042408;28;20836;-78
2021/07/31 06:49:03;;;;;;;2.23;1.37;;;23.20;31.40;;;;;;5037444;28;20433;-78
2021/07/31 06:51:30;;;;;;;3.37;1.73;;;23.00;31.30;;;;;;5029257;28;20488;-77
2021/07/31 06:54:02;;;;;;;2.80;1.50;;;23.00;31.30;;;;;;5027991;28;20595;-78
2021/07/31 06:56:29;;;;;;;2.30;1.70;;;22.60;30.90;;;;;;5022267;28;20446;-78
2021/07/31 06:58:56;;;;;;;2.93;1.47;;;22.20;32.70;;;;;;5026920;28;20903;-78
2021/07/31 07:01:23;;;;;;;3.10;1.53;;;21.90;32.80;;;;;;5039949;28;20445;-78
2021/07/31 07:03:52;;;;;;;2.57;1.87;;;21.70;33.80;;;;;;5034005;28;20544;-78
2021/07/31 07:06:21;;;;;;;3.20;1.33;;;21.70;33.90;;;;;;5020168;28;20476;-78
2021/07/31 07:08:48;;;;;;;3.53;1.23;;;21.50;33.60;;;;;;5020643;28;20488;-78
2021/07/31 07:11:18;;;;;;;4.40;1.77;;;21.50;34.10;;;;;;5020114;28;20575;-78
2021/07/31 07:13:45;;;;;;;1.53;1.43;;;21.50;33.80;;;;;;5022072;28;20547;-79
2021/07/31 07:16:11;;;;;;;2.60;1.50;;;21.40;34.40;;;;;;5032423;28;20496;-78
2021/07/31 07:18:38;;;;;;;4.10;1.50;;;21.50;34.10;;;;;;5039723;28;20449;-78
2021/07/31 07:21:06;;;;;;;7.60;1.47;;;21.50;34.10;;;;;;5043873;28;20475;-78
2021/07/31 07:23:35;;;;;;;5.77;1.60;;;21.40;34.10;;;;;;5035306;28;20451;-79
2021/07/31 07:26:02;;;;;;;4.33;1.53;;;21.30;34.80;;;;;;5026348;28;20462;-79
2021/07/31 07:28:29;;;;;;;4.37;2.00;;;21.30;34.90;;;;;;5034527;28;20528;-77
2021/07/31 07:30:56;;;;;;;3.20;1.77;;;21.40;34.40;;;;;;5035779;28;20486;-78
2021/07/31 07:33:23;;;;;;;2.50;1.80;;;21.60;34.60;;;;;;5022485;28;20537;-78
2021/07/31 07:35:51;;;;;;;7.00;1.73;;;21.50;34.30;;;;;;5048813;28;20488;-79
2021/07/31 07:38:18;;;;;;;4.83;1.50;;;21.50;34.30;;;;;;5029926;28;20475;-78
2021/07/31 07:40:47;;;;;;;4.70;2.03;;;21.50;34.40;;;;;;5048594;28;20460;-79
2021/07/31 07:43:14;;;;;;;5.20;2.00;;;21.60;34.10;;;;;;5045278;28;20464;-79
2021/07/31 07:45:41;;;;;;;5.33;1.67;;;21.60;33.70;;;;;;5043754;28;20909;-79
2021/07/31 07:48:08;;;;;;;4.40;2.20;;;21.50;34.10;;;;;;5045103;28;20495;-79
2021/07/31 07:50:35;;;;;;;8.63;2.03;;;21.80;34.20;;;;;;5047397;28;20460;-79
2021/07/31 07:53:02;;;;;;;7.13;1.60;;;21.80;34.40;;;;;;5049918;28;20464;-78
2021/07/31 07:55:29;;;;;;;2.90;1.80;;;22.00;34.10;;;;;;5042032;28;20468;-79
2021/07/31 07:57:57;;;;;;;2.93;1.67;;;22.00;34.00;;;;;;5047390;28;20460;-78
2021/07/31 08:00:24;;;;;;;7.93;1.87;;;21.90;34.00;;;;;;5045761;28;20463;-80
2021/07/31 08:02:51;;;;;;;2.37;1.40;;;21.90;34.20;;;;;;5050921;28;20422;-77
2021/07/31 08:05:18;;;;;;;2.20;1.50;;;21.80;34.30;;;;;;5055083;28;20479;-80
2021/07/31 08:07:45;;;;;;;6.43;1.80;;;22.00;34.40;;;;;;5050614;28;20470;-79
2021/07/31 08:10:13;;;;;;;3.67;2.03;;;22.00;35.20;;;;;;5051566;28;20435;-79
2021/07/31 08:12:40;;;;;;;7.30;2.23;;;22.10;34.50;;;;;;5051908;28;20595;-79
2021/07/31 08:15:09;;;;;;;5.63;2.37;;;22.10;34.80;;;;;;5050872;28;21057;-78
2021/07/31 08:17:37;;;;;;;5.03;1.60;;;22.20;34.70;;;;;;5044937;28;20464;-80
2021/07/31 08:20:05;;;;;;;2.37;1.77;;;22.30;34.30;;;;;;5049935;28;20411;-79
2021/07/31 08:22:32;;;;;;;4.70;1.73;;;22.10;34.20;;;;;;5057741;28;20436;-78
2021/07/31 08:24:59;;;;;;;3.07;2.27;;;22.10;34.00;;;;;;5057326;28;20516;-78
2021/07/31 08:27:28;;;;;;;4.50;2.10;;;22.30;35.10;;;;;;5036167;28;20450;-78
2021/07/31 08:29:55;;;;;;;4.83;2.00;;;22.40;34.60;;;;;;5048385;28;20907;-78
2021/07/31 08:32:23;;;;;;;2.93;1.90;;;22.60;34.40;;;;;;5036358;28;20496;-80
2021/07/31 08:34:51;;;;;;;3.87;1.97;;;22.60;34.00;;;;;;5053860;28;20473;-78
2021/07/31 08:37:18;;;;;;;3.93;1.90;;;22.60;34.10;;;;;;5052210;28;20420;-77
2021/07/31 08:39:45;;;;;;;7.70;2.03;;;22.90;32.90;;;;;;5032164;28;20483;-79
2021/07/31 08:42:13;;;;;;;3.70;1.70;;;22.70;32.90;;;;;;5030272;28;20440;-79
2021/07/31 08:44:41;;;;;;;5.23;1.67;;;22.60;32.70;;;;;;5027911;28;20455;-78
2021/07/31 08:47:10;;;;;;;6.97;1.87;;;22.60;33.10;;;;;;5026375;28;20513;-77
2021/07/31 08:49:40;;;;;;;5.23;1.87;;;22.70;33.20;;;;;;5026388;28;20494;-80
2021/07/31 08:52:08;;;;;;;4.07;2.10;;;22.90;32.30;;;;;;5025791;28;20490;-78
2021/07/31 08:54:39;;;;;;;3.20;1.47;;;23.10;31.40;;;;;;5030924;28;20524;-79
2021/07/31 08:57:06;;;;;;;4.03;2.00;;;23.00;31.30;;;;;;5030880;28;20454;-79
2021/07/31 08:59:33;;;;;;;2.30;1.63;;;23.10;31.40;;;;;;5027116;28;20459;-78
2021/07/31 09:02:00;;;;;;;4.27;1.87;;;23.10;31.60;;;;;;5024140;28;20923;-78
2021/07/31 09:04:28;;;;;;;2.43;1.53;;;23.30;31.50;;;;;;5039360;28;20538;-77
2021/07/31 09:06:56;;;;;;;8.07;1.90;;;23.40;31.60;;;;;;5048726;28;20480;-79
2021/07/31 09:09:27;;;;;;;2.90;1.90;;;23.40;31.60;;;;;;5046350;28;20470;-79
2021/07/31 09:11:57;;;;;;;2.23;1.80;;;23.20;31.40;;;;;;5050410;28;20487;-77
2021/07/31 09:14:24;;;;;;;3.97;1.73;;;23.20;31.40;;;;;;5047906;28;20462;-79
2021/07/31 09:16:51;;;;;;;4.00;1.70;;;23.00;32.50;;;;;;5033638;28;20435;-77
2021/07/31 09:19:19;;;;;;;5.20;1.60;;;23.10;31.40;;;;;;5032616;28;20462;-77
2021/07/31 09:21:47;;;;;;;3.90;1.60;;;23.20;31.40;;;;;;5029006;28;20446;-78
2021/07/31 09:24:21;;;;;;;2.33;1.43;;;23.10;31.40;;;;;;5046783;28;20508;-78
2021/07/31 09:26:50;;;;;;;3.33;2.00;;;23.10;31.50;;;;;;5047178;28;20454;-79
2021/07/31 09:29:19;;;;;;;5.63;1.83;;;23.20;31.40;;;;;;5028045;28;20451;-77
2021/07/31 09:31:54;;;;;;;6.00;2.13;;;23.40;31.60;;;;;;5022861;28;20534;-77
2021/07/31 09:34:29;;;;;;;3.40;2.07;;;23.50;31.70;;;;;;5043219;28;20513;-78
2021/07/31 09:37:11;;;;;;;3.27;2.13;;;23.60;31.80;;;;;;5046469;28;20488;-78
2021/07/31 09:39:56;;;;;;;8.60;1.63;;;23.60;31.60;;;;;;5025146;28;20450;-78
2021/07/31 09:42:32;;;;;;;3.23;1.50;;;23.60;31.80;;;;;;5030539;28;20422;-78
2021/07/31 09:45:00;;;;;;;2.80;1.90;;;23.50;31.70;;;;;;5027151;28;20516;-77
2021/07/31 09:47:27;;;;;;;2.70;1.80;;;23.70;31.00;;;;;;5027730;28;20457;-78
2021/07/31 09:49:54;;;;;;;3.83;2.03;;;23.60;30.90;;;;;;5028394;28;20454;-78
2021/07/31 09:52:24;;;;;;;1.93;1.30;;;23.70;30.50;;;;;;5028691;28;20490;-77
2021/07/31 09:54:53;;;;;;;3.17;1.83;;;23.70;30.80;;;;;;5047899;28;20466;-77
2021/07/31 09:57:25;;;;;;;4.57;1.87;;;23.80;31.00;;;;;;5040423;28;20470;-77
2021/07/31 09:59:56;;;;;;;6.03;2.00;;;23.70;30.80;;;;;;5018615;28;21071;-78
2021/07/31 10:02:23;;;;;;;2.63;1.90;;;23.90;30.10;;;;;;5018359;28;20459;-77
2021/07/31 10:04:52;;;;;;;4.10;2.10;;;24.20;30.00;;;;;;5017570;28;20483;-79
2021/07/31 10:07:20;;;;;;;2.77;1.90;;;24.20;29.70;;;;;;5018108;28;20788;-78
2021/07/31 10:09:50;;;;;;;7.93;2.13;;;24.20;29.70;;;;;;5039413;28;20518;-77
2021/07/31 10:12:21;;;;;;;2.20;2.00;;;24.20;29.70;;;;;;5042600;28;20474;-78
2021/07/31 10:14:50;;;;;;;4.77;1.77;;;24.20;29.60;;;;;;5027763;28;20489;-77
2021/07/31 10:17:17;;;;;;;4.33;1.60;;;24.50;29.40;;;;;;5022500;28;20565;-78
2021/07/31 10:19:47;;;;;;;3.93;1.87;;;24.60;28.20;;;;;;5025589;28;20475;-79
2021/07/31 10:22:15;;;;;;;6.30;2.17;;;24.70;28.60;;;;;;5028106;28;20471;-77
2021/07/31 10:25:06;;;;;;;2.83;1.57;;;24.50;28.50;;;;;;5056296;28;20462;-78
2021/07/31 10:27:34;;;;;;;4.10;1.70;;;24.20;29.10;;;;;;5050801;28;20512;-78
2021/07/31 10:30:05;;;;;;;3.57;1.70;;;23.90;29.70;;;;;;5027914;28;20450;-78
2021/07/31 10:32:40;;;;;;;8.23;2.23;;;23.80;29.40;;;;;;5020214;28;20537;-78
2021/07/31 10:35:09;;;;;;;4.23;1.83;;;23.90;30.00;;;;;;5040464;28;20561;-77
2021/07/31 10:37:46;;;;;;;4.87;2.03;;;23.90;29.60;;;;;;5044107;28;20465;-77
2021/07/31 10:40:44;;;;;;;4.47;1.93;;;23.60;30.90;;;;;;5044408;28;20519;-78
2021/07/31 10:43:12;;;;;;;2.53;1.50;;;23.50;31.70;;;;;;5052754;28;20446;-82
2021/07/31 10:45:40;;;;;;;1.93;1.80;;;23.40;31.60;;;;;;5104136;22;20517;-87
2021/07/31 10:48:24;;;;;;;4.33;1.90;;;23.60;31.80;;;;;;5098935;28;20491;-82
2021/07/31 10:50:51;;;;;;;2.80;1.80;;;23.80;32.00;;;;;;5099648;28;20439;-84
2021/07/31 10:53:33;;;;;;;4.40;1.77;;;24.00;30.50;;;;;;5098818;28;20450;-81
2021/07/31 10:56:02;;;;;;;3.87;2.00;;;24.10;30.00;;;;;;5069503;28;20465;-81
2021/07/31 10:58:35;;;;;;;2.03;1.53;;;24.20;29.30;;;;;;5064443;28;20492;-84
2021/07/31 11:01:24;;;;;;;3.30;1.80;;;24.00;29.60;;;;;;5067943;28;20457;-82
2021/07/31 11:03:51;;;;;;;6.10;1.77;;;24.30;29.70;;;;;;5062972;28;20468;-83
2021/07/31 11:06:19;;;;;;;4.67;1.60;;;24.50;28.50;;;;;;5069654;28;20459;-82
2021/07/31 11:09:13;;;;;;;3.53;1.43;;;24.60;28.20;;;;;;5069448;28;20456;-81
2021/07/31 11:11:42;;;;;;;5.40;2.00;;;24.90;27.80;;;;;;5064969;28;20432;-83
2021/07/31 11:14:09;;;;;;;5.40;1.63;;;25.10;27.30;;;;;;5076480;28;20458;-81
2021/07/31 11:16:36;;;;;;;5.23;1.90;;;25.30;26.70;;;;;;5070749;28;20472;-83
2021/07/31 11:19:04;;;;;;;1.80;1.50;;;25.50;26.90;;;;;;5077232;28;20440;-87
2021/07/31 11:21:33;;;;;;;3.17;1.53;;;25.50;26.60;;;;;;5072452;28;20464;-84
2021/07/31 11:24:02;;;;;;;4.37;1.90;;;25.70;25.90;;;;;;5061363;28;20505;-82
2021/07/31 11:26:45;;;;;;;3.87;1.50;;;25.60;26.40;;;;;;5062766;28;20965;-82
2021/07/31 11:29:20;;;;;;;2.20;1.57;;;25.40;26.50;;;;;;5061948;28;21128;-78
2021/07/31 11:32:00;;;;;;;2.17;1.50;;;25.60;26.80;;;;;;5063016;28;20540;-80
2021/07/31 11:34:27;;;;;;;7.63;2.30;;;25.70;26.60;;;;;;5059090;28;20479;-81
2021/07/31 11:36:56;;;;;;;7.13;2.00;;;25.60;27.00;;;;;;5076164;28;20411;-83
2021/07/31 11:39:23;;;;;;;1.97;1.30;;;25.50;27.60;;;;;;5061194;28;20470;-80
2021/07/31 11:41:57;;;;;;;4.60;2.20;;;25.60;27.40;;;;;;5055009;28;20487;-76
2021/07/31 11:44:26;;;;;;;2.20;1.70;;;25.70;27.40;;;;;;5054840;28;20486;-80
2021/07/31 11:46:53;;;;;;;5.00;2.23;;;25.80;26.70;;;;;;5056125;28;20975;-80
2021/07/31 11:49:28;;;;;;;3.40;1.87;;;25.50;27.50;;;;;;5055777;28;20472;-77
2021/07/31 11:51:56;;;;;;;3.30;1.50;;;25.40;27.80;;;;;;5054796;28;20955;-77
2021/07/31 11:54:24;;;;;;;2.40;1.40;;;25.30;27.30;;;;;;5050609;28;20462;-78
2021/07/31 11:56:53;;;;;;;3.97;1.60;;;25.10;26.90;;;;;;5054842;28;20426;-76
2021/07/31 11:59:24;;;;;;;4.43;1.80;;;25.10;27.40;;;;;;5054593;28;20538;-78
2021/07/31 12:01:55;;;;;;;3.53;1.50;;;25.20;27.00;;;;;;5055474;28;20460;-77
2021/07/31 12:04:42;;;;;;;4.27;1.60;;;25.20;26.40;;;;;;5057215;28;20505;-80
2021/07/31 12:07:10;;;;;;;2.57;1.50;;;25.30;26.30;;;;;;5062966;28;20467;-80
2021/07/31 12:09:37;;;;;;;1.87;1.60;;;25.60;26.60;;;;;;5062107;28;20550;-77
2021/07/31 12:12:23;;;;;;;4.83;2.10;;;26.00;25.20;;;;;;5063067;28;20539;-78
2021/07/31 12:15:12;;;;;;;3.70;1.53;;;26.10;24.90;;;;;;5059453;28;20986;-80
2021/07/31 12:17:39;;;;;;;5.63;1.90;;;26.20;24.40;;;;;;5060040;28;20510;-79
2021/07/31 12:20:08;;;;;;;3.00;1.80;;;25.90;24.80;;;;;;5075739;28;20455;-80
2021/07/31 12:22:36;;;;;;;1.77;1.40;;;26.00;24.80;;;;;;5073043;28;20460;-76
2021/07/31 12:25:14;;;;;;;4.13;1.70;;;26.00;24.80;;;;;;5058103;28;20477;-76
2021/07/31 12:28:00;;;;;;;4.90;1.60;;;26.20;25.50;;;;;;5057455;28;20447;-77
2021/07/31 12:30:29;;;;;;;2.77;1.70;;;26.50;24.90;;;;;;5057338;28;20435;-78
2021/07/31 12:33:01;;;;;;;3.53;1.83;;;26.50;24.30;;;;;;5056512;28;20576;-78
2021/07/31 12:35:39;;;;;;;3.40;1.60;;;26.50;25.10;;;;;;5056484;28;20472;-78
2021/07/31 12:38:09;;;;;;;4.37;1.70;;;26.80;25.10;;;;;;5056216;28;20482;-79
2021/07/31 12:40:38;;;;;;;4.67;1.57;;;26.80;23.30;;;;;;5055734;28;20529;-76
2021/07/31 12:43:08;;;;;;;2.50;1.70;;;26.30;25.00;;;;;;5057884;28;20460;-76
2021/07/31 12:45:36;;;;;;;3.90;2.00;;;26.10;24.90;;;;;;5065534;28;21062;-81
2021/07/31 12:48:03;;;;;;;4.03;2.30;;;26.00;24.80;;;;;;5064899;28;20490;-80
2021/07/31 12:50:31;;;;;;;1.83;1.63;;;26.10;24.90;;;;;;5069049;28;20456;-80
2021/07/31 12:52:59;;;;;;;3.63;1.60;;;26.10;24.90;;;;;;5068702;28;20518;-81
2021/07/31 12:55:26;;;;;;;2.90;1.70;;;25.80;24.70;;;;;;5061971;28;21106;-82